createdAt,value
2023-03-11T00:01:45.896Z,1.70
2023-03-11T00:04:13.197Z,1.58
2023-03-11T00:06:40.409Z,1.60
2023-03-11T00:09:07.559Z,1.50
2023-03-11T00:11:34.789Z,1.42
2023-03-11T00:14:01.908Z,1.63
2023-03-11T00:16:29.027Z,1.40
2023-03-11T00:18:56.282Z,1.65
2023-03-11T00:21:23.416Z,1.20
2023-03-11T00:23:50.656Z,1.70
2023-03-11T00:26:17.748Z,1.10
2023-03-11T00:28:44.888Z,1.42
2023-03-11T00:31:13.961Z,1.42
2023-03-11T00:33:41.155Z,1.30
2023-03-11T00:36:08.483Z,1.10
2023-03-11T00:38:35.745Z,1.08
2023-03-11T00:41:02.907Z,0.93
2023-03-11T00:43:30.044Z,1.20
2023-03-11T00:45:57.376Z,1.17
2023-03-11T00:48:24.559Z,1.40
2023-03-11T00:50:51.700Z,1.30
2023-03-11T00:53:18.872Z,1.55
2023-03-11T00:55:45.966Z,1.15
2023-03-11T00:58:13.348Z,1.38
2023-03-11T01:00:41.028Z,1.30
2023-03-11T01:03:08.436Z,1.10
2023-03-11T01:05:35.805Z,1.38
2023-03-11T01:08:03.385Z,1.60
2023-03-11T01:10:31.444Z,1.40
2023-03-11T01:12:58.907Z,1.45
2023-03-11T01:15:31.339Z,1.05
2023-03-11T01:20:25.667Z,1.90
2023-03-11T01:22:52.885Z,1.77
2023-03-11T01:25:21.188Z,1.75
2023-03-11T01:27:48.381Z,1.48
2023-03-11T01:30:18.932Z,1.50
2023-03-11T01:32:46.224Z,1.48
2023-03-11T01:35:14.782Z,1.30
2023-03-11T01:37:42.089Z,1.20
2023-03-11T01:40:12.214Z,1.30
2023-03-11T01:42:39.356Z,1.00
2023-03-11T01:45:26.698Z,0.90
2023-03-11T01:47:53.838Z,0.80
2023-03-11T01:50:21.202Z,1.10
2023-03-11T01:52:48.486Z,1.20
2023-03-11T01:55:17.574Z,0.60
2023-03-11T01:57:45.576Z,0.80
2023-03-11T02:00:13.349Z,0.85
2023-03-11T02:02:49.008Z,0.90
2023-03-11T02:05:17.468Z,0.90
2023-03-11T02:07:44.630Z,0.90
2023-03-11T02:10:13.526Z,1.35
2023-03-11T02:12:41.132Z,0.82
2023-03-11T02:15:09.296Z,1.10
2023-03-11T02:17:37.181Z,0.90
2023-03-11T02:20:06.229Z,5.10
2023-03-11T02:22:34.104Z,1.80
2023-03-11T02:25:01.173Z,0.85
2023-03-11T02:27:29.186Z,1.05
2023-03-11T02:29:56.874Z,1.17
2023-03-11T02:32:24.622Z,0.80
2023-03-11T02:34:51.778Z,1.02
2023-03-11T02:37:19.427Z,0.80
2023-03-11T02:39:47.872Z,0.75
2023-03-11T02:42:17.140Z,0.70
2023-03-11T02:44:45.402Z,0.90
2023-03-11T02:47:12.674Z,0.95
2023-03-11T02:49:39.906Z,0.80
2023-03-11T02:52:07.622Z,0.70
2023-03-11T02:54:34.771Z,0.80
2023-03-11T02:57:01.856Z,0.95
2023-03-11T02:59:29.045Z,0.88
2023-03-11T03:01:56.228Z,0.80
2023-03-11T03:04:23.393Z,0.75
2023-03-11T03:06:50.524Z,1.20
2023-03-11T03:09:17.694Z,0.68
2023-03-11T03:11:44.925Z,1.00
2023-03-11T03:14:11.981Z,0.88
2023-03-11T03:16:39.360Z,1.00
2023-03-11T03:19:06.603Z,0.90
2023-03-11T03:21:33.711Z,0.70
2023-03-11T03:24:00.936Z,0.90
2023-03-11T03:26:28.073Z,1.10
2023-03-11T03:28:55.220Z,1.00
2023-03-11T03:31:22.471Z,1.08
2023-03-11T03:33:49.613Z,1.00
2023-03-11T03:36:16.735Z,1.20
2023-03-11T03:38:43.882Z,1.40
2023-03-11T03:41:11.251Z,1.08
2023-03-11T03:43:38.396Z,0.77
2023-03-11T03:46:06.317Z,1.15
2023-03-11T03:48:33.670Z,1.10
2023-03-11T03:51:08.668Z,1.00
2023-03-11T03:53:36.430Z,1.10
2023-03-11T03:56:04.816Z,1.42
2023-03-11T03:58:31.949Z,1.23
2023-03-11T04:00:59.486Z,1.30
2023-03-11T04:03:27.600Z,1.02
2023-03-11T04:05:55.085Z,1.20
2023-03-11T04:08:22.265Z,1.35
2023-03-11T04:10:58.522Z,1.60
2023-03-11T04:13:25.645Z,1.75
2023-03-11T04:15:52.771Z,1.30
2023-03-11T04:18:19.976Z,1.20
2023-03-11T04:20:47.084Z,1.48
2023-03-11T04:23:14.205Z,1.40
2023-03-11T04:25:41.400Z,1.40
2023-03-11T04:28:08.542Z,1.25
2023-03-11T04:30:35.679Z,1.00
2023-03-11T04:33:03.379Z,1.80
2023-03-11T04:35:30.543Z,1.45
2023-03-11T04:37:57.653Z,1.40
2023-03-11T04:40:24.733Z,1.40
2023-03-11T04:42:51.858Z,1.67
2023-03-11T04:45:18.993Z,1.20
2023-03-11T04:47:49.812Z,1.10
2023-03-11T04:50:17.609Z,1.02
2023-03-11T04:52:44.828Z,1.08
2023-03-11T04:55:13.863Z,1.15
2023-03-11T04:57:41.791Z,1.13
2023-03-11T05:00:11.219Z,0.98
2023-03-11T05:02:39.077Z,1.42
2023-03-11T05:05:07.050Z,1.52
2023-03-11T05:07:34.128Z,1.15
2023-03-11T05:10:01.243Z,1.23
2023-03-11T05:12:28.456Z,1.10
2023-03-11T05:14:55.548Z,1.23
2023-03-11T05:17:22.644Z,1.48
2023-03-11T05:19:49.762Z,1.50
2023-03-11T05:22:16.897Z,1.42
2023-03-11T05:24:44.060Z,1.17
2023-03-11T05:27:11.202Z,1.45
2023-03-11T05:29:38.315Z,1.50
2023-03-11T05:32:05.604Z,1.30
2023-03-11T05:34:32.719Z,1.02
2023-03-11T05:37:03.176Z,1.20
2023-03-11T05:39:30.533Z,1.20
2023-03-11T05:41:57.710Z,1.23
2023-03-11T05:44:24.823Z,1.00
2023-03-11T05:46:51.950Z,1.60
2023-03-11T05:49:21.315Z,1.20
2023-03-11T05:51:48.804Z,2.67
2023-03-11T05:54:16.275Z,1.38
2023-03-11T05:56:44.104Z,2.03
2023-03-11T05:59:13.247Z,1.60
2023-03-11T06:01:43.006Z,1.50
2023-03-11T06:04:10.605Z,2.10
2023-03-11T06:06:39.633Z,1.10
2023-03-11T06:09:06.771Z,1.25
2023-03-11T06:11:33.930Z,1.50
2023-03-11T06:14:01.031Z,1.60
2023-03-11T06:16:28.333Z,1.25
2023-03-11T06:18:55.481Z,1.60
2023-03-11T06:21:24.253Z,1.45
2023-03-11T06:23:51.413Z,1.52
2023-03-11T06:26:20.225Z,1.65
2023-03-11T06:28:49.311Z,2.92
2023-03-11T06:31:17.815Z,2.10
2023-03-11T06:33:44.963Z,2.55
2023-03-11T06:36:13.888Z,1.50
2023-03-11T06:38:41.185Z,1.33
2023-03-11T06:41:08.673Z,1.40
2023-03-11T06:43:36.494Z,1.60
2023-03-11T06:46:08.832Z,1.90
2023-03-11T06:48:35.970Z,1.63
2023-03-11T06:51:03.131Z,1.23
2023-03-11T06:53:30.548Z,1.15
2023-03-11T06:56:03.810Z,1.67
2023-03-11T06:58:31.411Z,1.63
2023-03-11T07:01:02.420Z,1.20
2023-03-11T07:03:29.575Z,2.72
2023-03-11T07:05:56.736Z,2.05
2023-03-11T07:08:23.815Z,1.60
2023-03-11T07:11:10.443Z,1.58
2023-03-11T07:13:38.676Z,1.45
2023-03-11T07:16:07.490Z,1.58
2023-03-11T07:18:35.964Z,1.60
2023-03-11T07:21:03.777Z,3.55
2023-03-11T07:23:30.888Z,2.15
2023-03-11T07:25:58.025Z,4.03
2023-03-11T07:28:25.992Z,1.50
2023-03-11T07:30:53.590Z,2.15
2023-03-11T07:33:21.388Z,1.52
2023-03-11T07:35:49.424Z,1.58
2023-03-11T07:38:17.905Z,1.50
2023-03-11T07:40:45.181Z,1.50
2023-03-11T07:43:12.398Z,1.75
2023-03-11T07:45:39.559Z,1.73
2023-03-11T07:48:06.835Z,1.50
2023-03-11T07:50:34.032Z,2.28
2023-03-11T07:53:01.126Z,1.55
2023-03-11T07:55:28.270Z,1.60
2023-03-11T07:57:55.381Z,1.50
2023-03-11T08:00:22.671Z,1.75
2023-03-11T08:02:49.905Z,1.50
2023-03-11T08:05:18.490Z,1.42
2023-03-11T08:07:45.649Z,1.50
2023-03-11T08:10:12.977Z,1.73
2023-03-11T08:12:40.066Z,1.90
2023-03-11T08:15:07.557Z,1.45
2023-03-11T08:17:34.633Z,2.10
2023-03-11T08:20:01.802Z,2.00
2023-03-11T08:22:28.954Z,2.30
2023-03-11T08:24:56.625Z,1.90
2023-03-11T08:27:23.763Z,3.70
2023-03-11T08:29:50.869Z,3.10
2023-03-11T08:32:18.051Z,3.40
2023-03-11T08:34:45.296Z,2.80
2023-03-11T08:37:12.396Z,2.17
2023-03-11T08:39:39.500Z,2.85
2023-03-11T08:42:06.719Z,2.97
2023-03-11T08:44:33.778Z,2.47
2023-03-11T08:47:01.654Z,1.73
2023-03-11T08:49:29.059Z,5.75
2023-03-11T08:51:56.181Z,5.28
2023-03-11T08:54:23.369Z,4.22
2023-03-11T08:56:50.589Z,8.30
2023-03-11T08:59:17.683Z,1.42
2023-03-11T09:01:44.782Z,1.80
2023-03-11T09:04:13.042Z,2.47
2023-03-11T09:06:42.835Z,1.95
2023-03-11T09:09:11.102Z,1.80
2023-03-11T09:11:38.211Z,1.90
2023-03-11T09:14:06.372Z,1.65
2023-03-11T09:16:33.644Z,1.95
2023-03-11T09:19:03.619Z,1.92
2023-03-11T09:21:30.860Z,2.30
2023-03-11T09:23:57.984Z,3.17
2023-03-11T09:26:25.154Z,1.25
2023-03-11T09:28:52.406Z,2.70
2023-03-11T09:31:20.114Z,2.40
2023-03-11T09:33:47.422Z,4.25
2023-03-11T09:36:15.943Z,3.00
2023-03-11T09:38:43.448Z,2.50
2023-03-11T09:41:29.172Z,3.08
2023-03-11T09:44:22.601Z,1.40
2023-03-11T09:47:08.446Z,2.95
2023-03-11T09:49:50.782Z,2.40
2023-03-11T09:52:24.363Z,3.15
2023-03-11T09:54:54.729Z,2.17
2023-03-11T09:57:30.907Z,3.60
2023-03-11T09:59:58.648Z,2.38
2023-03-11T10:02:27.659Z,2.85
2023-03-11T10:05:04.056Z,4.93
2023-03-11T10:07:37.617Z,2.35
2023-03-11T10:10:04.995Z,2.72
2023-03-11T10:12:41.325Z,1.95
2023-03-11T10:15:09.424Z,3.08
2023-03-11T10:17:55.246Z,1.40
2023-03-11T10:20:46.425Z,1.25
2023-03-11T10:23:27.599Z,1.30
2023-03-11T10:25:58.053Z,1.20
2023-03-11T10:28:29.118Z,1.52
2023-03-11T10:31:03.411Z,1.73
2023-03-11T10:33:38.244Z,1.55
2023-03-11T10:36:12.659Z,1.73
2023-03-11T10:38:48.291Z,1.67
2023-03-11T10:41:21.655Z,1.52
2023-03-11T10:44:03.909Z,2.58
2023-03-11T10:46:31.105Z,2.78
2023-03-11T10:48:58.408Z,1.80
2023-03-11T10:51:27.627Z,1.95
2023-03-11T10:53:59.079Z,1.17
2023-03-11T10:56:31.752Z,0.90
2023-03-11T11:01:26.784Z,3.60
2023-03-11T11:03:57.977Z,1.67
2023-03-11T11:06:35.120Z,2.40
2023-03-11T11:09:31.050Z,3.13
2023-03-11T11:12:03.295Z,1.80
2023-03-11T11:14:50.328Z,1.55
2023-03-11T11:17:20.707Z,1.90
2023-03-11T11:19:49.352Z,1.85
2023-03-11T11:22:18.357Z,2.45
2023-03-11T11:24:46.190Z,1.10
2023-03-11T11:27:18.520Z,1.30
2023-03-11T11:29:46.242Z,2.67
2023-03-11T11:32:19.589Z,2.13
2023-03-11T11:34:55.843Z,1.10
2023-03-11T11:37:23.365Z,1.23
2023-03-11T11:39:58.915Z,1.08
2023-03-11T11:42:27.235Z,1.10
2023-03-11T11:44:58.349Z,1.00
2023-03-11T11:47:28.540Z,1.25
2023-03-11T11:49:57.518Z,3.03
2023-03-11T11:52:35.905Z,2.20
2023-03-11T11:55:03.056Z,1.10
2023-03-11T11:57:30.412Z,1.33
2023-03-11T11:59:58.095Z,1.17
2023-03-11T12:02:37.621Z,1.15
2023-03-11T12:05:10.437Z,1.30
2023-03-11T12:07:52.921Z,1.15
2023-03-11T12:10:29.295Z,1.45
2023-03-11T12:12:56.397Z,1.20
2023-03-11T12:15:42.073Z,1.05
2023-03-11T12:18:25.061Z,1.17
2023-03-11T12:23:31.162Z,1.20
2023-03-11T12:26:19.404Z,1.27
2023-03-11T12:28:59.784Z,1.30
2023-03-11T12:31:28.291Z,1.33
2023-03-11T12:34:02.300Z,1.08
2023-03-11T12:36:37.556Z,1.08
2023-03-11T12:39:08.910Z,1.27
2023-03-11T12:41:42.124Z,1.52
2023-03-11T12:44:18.228Z,1.38
2023-03-11T12:47:05.586Z,0.98
2023-03-11T12:49:40.934Z,1.10
2023-03-11T12:52:14.254Z,1.15
2023-03-11T12:54:48.167Z,1.58
2023-03-11T12:57:21.245Z,1.40
2023-03-11T13:00:12.415Z,1.20
2023-03-11T13:02:39.660Z,1.38
2023-03-11T13:05:15.998Z,1.20
2023-03-11T13:07:46.269Z,1.45
2023-03-11T13:10:35.932Z,1.10
2023-03-11T13:13:03.432Z,0.80
2023-03-11T13:15:31.633Z,0.95
2023-03-11T13:18:07.683Z,1.50
2023-03-11T13:20:43.888Z,1.30
2023-03-11T13:23:10.988Z,1.02
2023-03-11T13:25:39.942Z,1.63
2023-03-11T13:28:25.879Z,1.25
2023-03-11T13:31:12.084Z,1.40
2023-03-11T13:33:46.626Z,1.10
2023-03-11T13:36:32.951Z,2.10
2023-03-11T13:39:15.098Z,1.98
2023-03-11T13:41:44.376Z,1.63
2023-03-11T13:44:11.648Z,1.58
2023-03-11T13:46:40.877Z,1.60
2023-03-11T13:49:31.578Z,1.42
2023-03-11T13:51:59.455Z,1.45
2023-03-11T13:54:36.386Z,1.10
2023-03-11T13:57:04.234Z,1.17
2023-03-11T13:59:32.942Z,1.70
2023-03-11T14:02:01.417Z,1.40
2023-03-11T14:04:30.505Z,1.33
2023-03-11T14:06:57.737Z,1.05
2023-03-11T14:09:26.550Z,1.20
2023-03-11T14:11:54.407Z,1.20
2023-03-11T14:14:34.536Z,1.10
2023-03-11T14:17:03.938Z,1.10
2023-03-11T14:19:31.189Z,1.10
2023-03-11T14:21:58.332Z,1.00
2023-03-11T14:24:31.322Z,1.45
2023-03-11T14:27:00.556Z,1.30
2023-03-11T14:29:35.855Z,1.10
2023-03-11T14:32:17.634Z,1.00
2023-03-11T14:34:45.961Z,1.23
2023-03-11T14:37:26.395Z,0.90
2023-03-11T14:39:54.261Z,1.40
2023-03-11T14:42:26.076Z,1.25
2023-03-11T14:45:05.131Z,1.30
2023-03-11T14:47:35.638Z,1.30
2023-03-11T14:50:03.973Z,1.20
2023-03-11T14:52:34.564Z,1.50
2023-03-11T14:55:02.266Z,1.40
2023-03-11T14:57:29.339Z,1.50
2023-03-11T14:59:57.191Z,1.30
2023-03-11T15:02:43.109Z,1.50
2023-03-11T15:05:20.702Z,2.30
2023-03-11T15:07:49.574Z,1.52
2023-03-11T15:10:16.746Z,1.20
2023-03-11T15:12:45.589Z,1.63
2023-03-11T15:15:39.080Z,1.40
2023-03-11T15:18:20.068Z,1.42
2023-03-11T15:20:47.854Z,1.60
2023-03-11T15:23:21.671Z,1.20
2023-03-11T15:25:50.116Z,1.40
2023-03-11T15:28:25.233Z,1.60
2023-03-11T15:31:12.369Z,2.72
2023-03-11T15:33:39.648Z,1.80
2023-03-11T15:36:06.984Z,1.35
2023-03-11T15:38:34.164Z,2.00
2023-03-11T15:41:03.120Z,26.92
2023-03-11T15:43:31.497Z,6.93
2023-03-11T15:45:59.741Z,16.35
2023-03-11T15:48:28.959Z,17.20
2023-03-11T15:50:59.828Z,6.60
2023-03-11T15:53:27.934Z,13.60
2023-03-11T15:56:06.265Z,21.77
2023-03-11T15:58:34.252Z,4.68
2023-03-11T16:01:01.424Z,7.13
2023-03-11T16:03:31.242Z,10.00
2023-03-11T16:05:58.560Z,6.45
2023-03-11T16:08:25.724Z,2.30
2023-03-11T16:10:52.874Z,3.45
2023-03-11T16:13:19.988Z,5.65
2023-03-11T16:15:47.369Z,4.43
2023-03-11T16:18:14.761Z,2.15
2023-03-11T16:20:43.649Z,2.67
2023-03-11T16:23:17.279Z,3.15
2023-03-11T16:25:44.754Z,5.95
2023-03-11T16:28:14.235Z,8.38
2023-03-11T16:30:41.416Z,5.53
2023-03-11T16:33:08.672Z,12.07
2023-03-11T16:35:36.053Z,5.57
2023-03-11T16:38:03.142Z,6.60
2023-03-11T16:40:30.608Z,2.95
2023-03-11T16:43:00.814Z,3.35
2023-03-11T16:45:28.363Z,2.30
2023-03-11T16:47:55.515Z,4.38
2023-03-11T16:50:24.312Z,4.90
2023-03-11T16:52:51.947Z,12.00
2023-03-11T16:55:19.117Z,5.80
2023-03-11T16:57:46.330Z,4.78
2023-03-11T17:00:14.687Z,3.03
2023-03-11T17:02:41.848Z,3.25
2023-03-11T17:05:09.377Z,2.40
2023-03-11T17:07:39.294Z,4.88
2023-03-11T17:10:07.454Z,3.50
2023-03-11T17:12:35.961Z,4.78
2023-03-11T17:15:03.873Z,6.28
2023-03-11T17:17:31.065Z,4.40
2023-03-11T17:19:58.264Z,14.57
2023-03-11T17:22:25.380Z,12.45
2023-03-11T17:24:52.414Z,14.55
2023-03-11T17:27:19.552Z,6.85
2023-03-11T17:29:46.881Z,6.38
2023-03-11T17:32:17.366Z,6.10
2023-03-11T17:34:44.701Z,11.63
2023-03-11T17:37:12.040Z,7.28
2023-03-11T17:39:39.229Z,4.80
2023-03-11T17:42:06.507Z,11.82
2023-03-11T17:44:50.226Z,9.85
2023-03-11T17:47:19.626Z,3.17
2023-03-11T17:49:47.073Z,6.47
2023-03-11T17:52:15.270Z,3.80
2023-03-11T17:54:42.367Z,5.35
2023-03-11T17:57:09.462Z,9.55
2023-03-11T17:59:36.634Z,6.53
2023-03-11T18:02:03.874Z,24.70
2023-03-11T18:04:31.068Z,27.33
2023-03-11T18:06:58.158Z,13.93
2023-03-11T18:09:25.286Z,5.88
2023-03-11T18:11:52.367Z,5.25
2023-03-11T18:14:19.439Z,3.33
2023-03-11T18:16:46.540Z,2.10
2023-03-11T18:19:13.792Z,2.05
2023-03-11T18:21:40.987Z,2.83
2023-03-11T18:24:08.104Z,3.45
2023-03-11T18:26:35.302Z,2.67
2023-03-11T18:29:02.590Z,2.83
2023-03-11T18:31:30.823Z,3.15
2023-03-11T18:33:59.768Z,2.40
2023-03-11T18:36:31.117Z,2.67
2023-03-11T18:38:58.960Z,4.13
2023-03-11T18:41:26.897Z,4.03
2023-03-11T18:43:54.859Z,5.72
2023-03-11T18:46:22.151Z,7.88
2023-03-11T18:48:49.330Z,6.57
2023-03-11T18:51:16.657Z,5.72
2023-03-11T18:53:43.824Z,7.00
2023-03-11T18:56:14.870Z,8.00
2023-03-11T18:58:42.172Z,8.55
2023-03-11T19:01:12.090Z,9.65
2023-03-11T19:03:39.435Z,8.65
2023-03-11T19:06:07.993Z,6.18
2023-03-11T19:08:35.165Z,5.60
2023-03-11T19:11:05.994Z,6.80
2023-03-11T19:13:45.914Z,6.80
2023-03-11T19:16:16.052Z,10.00
2023-03-11T19:18:43.267Z,9.70
2023-03-11T19:21:12.031Z,9.90
2023-03-11T19:23:39.228Z,8.80
2023-03-11T19:26:06.423Z,9.02
2023-03-11T19:28:33.605Z,9.07
2023-03-11T19:31:00.900Z,9.10
2023-03-11T19:33:28.462Z,7.80
2023-03-11T19:35:59.830Z,9.57
2023-03-11T19:38:27.461Z,11.00
2023-03-11T19:40:54.994Z,12.00
2023-03-11T19:43:23.735Z,8.15
2023-03-11T19:45:50.917Z,7.05
2023-03-11T19:48:18.568Z,8.00
2023-03-11T19:50:45.672Z,9.25
2023-03-11T19:53:12.978Z,10.68
2023-03-11T19:55:44.224Z,9.32
2023-03-11T19:58:11.420Z,6.85
2023-03-11T20:00:40.097Z,11.05
2023-03-11T20:03:07.302Z,9.68
2023-03-11T20:05:36.328Z,9.45
2023-03-11T20:08:03.870Z,7.93
2023-03-11T20:10:31.084Z,10.02
2023-03-11T20:13:02.466Z,9.50
2023-03-11T20:15:30.497Z,9.93
2023-03-11T20:17:57.745Z,8.85
2023-03-11T20:20:24.878Z,9.48
2023-03-11T20:22:51.925Z,7.95
2023-03-11T20:25:19.136Z,8.18
2023-03-11T20:27:46.259Z,8.23
2023-03-11T20:30:13.831Z,7.85
2023-03-11T20:32:40.971Z,8.43
2023-03-11T20:35:08.345Z,8.15
2023-03-11T20:37:35.539Z,9.43
2023-03-11T20:40:03.037Z,10.32
2023-03-11T20:42:30.224Z,11.00
2023-03-11T20:44:57.346Z,10.93
2023-03-11T20:47:24.539Z,11.57
2023-03-11T20:49:51.958Z,10.93
2023-03-11T20:52:19.093Z,10.70
2023-03-11T20:54:46.241Z,11.05
2023-03-11T20:57:13.351Z,10.40
2023-03-11T20:59:40.503Z,10.20
2023-03-11T21:02:08.027Z,11.13
2023-03-11T21:04:35.576Z,11.20
2023-03-11T21:07:03.080Z,11.27
2023-03-11T21:09:30.603Z,12.40
2023-03-11T21:11:57.877Z,11.57
2023-03-11T21:14:25.066Z,11.27
2023-03-11T21:16:52.325Z,11.00
2023-03-11T21:19:22.168Z,12.57
2023-03-11T21:21:49.494Z,12.95
2023-03-11T21:24:16.767Z,14.52
2023-03-11T21:26:43.848Z,15.05
2023-03-11T21:29:11.166Z,13.77
2023-03-11T21:31:38.528Z,12.85
2023-03-11T21:34:05.775Z,12.48
2023-03-11T21:36:33.040Z,11.48
2023-03-11T21:39:03.295Z,11.68
2023-03-11T21:41:30.835Z,11.30
2023-03-11T21:43:58.230Z,11.60
2023-03-11T21:46:27.042Z,12.00
2023-03-11T21:48:54.333Z,10.55
2023-03-11T21:51:22.113Z,9.48
2023-03-11T21:53:49.485Z,10.70
2023-03-11T21:56:17.233Z,10.13
2023-03-11T21:58:44.610Z,10.82
2023-03-11T22:01:12.057Z,8.60
2023-03-11T22:03:39.652Z,7.57
2023-03-11T22:06:08.104Z,8.10
2023-03-11T22:08:35.348Z,7.05
2023-03-11T22:11:03.056Z,7.10
2023-03-11T22:13:30.218Z,8.98
2023-03-11T22:15:57.431Z,8.57
2023-03-11T22:18:24.664Z,7.45
2023-03-11T22:20:52.134Z,7.50
2023-03-11T22:23:19.365Z,8.00
2023-03-11T22:25:46.473Z,9.20
2023-03-11T22:28:14.699Z,7.03
2023-03-11T22:30:41.866Z,6.35
2023-03-11T22:33:09.122Z,5.75
2023-03-11T22:35:36.364Z,33.28
2023-03-11T22:38:03.467Z,24.27
2023-03-11T22:40:30.626Z,9.00
2023-03-11T22:42:57.753Z,5.35
2023-03-11T22:45:24.942Z,4.63
2023-03-11T22:47:53.118Z,4.13
2023-03-11T22:50:20.962Z,3.67
2023-03-11T22:52:48.129Z,3.67
2023-03-11T22:55:15.285Z,4.13
2023-03-11T22:57:42.697Z,4.00
2023-03-11T23:00:17.117Z,4.32
2023-03-11T23:02:45.230Z,4.10
2023-03-11T23:05:13.210Z,4.30
2023-03-11T23:07:40.587Z,4.25
2023-03-11T23:10:08.849Z,5.70
2023-03-11T23:12:36.972Z,4.45
2023-03-11T23:15:04.962Z,5.30
2023-03-11T23:17:32.095Z,6.65
2023-03-11T23:19:59.218Z,7.38
2023-03-11T23:22:26.434Z,5.82
2023-03-11T23:24:53.582Z,5.10
2023-03-11T23:27:20.756Z,4.72
2023-03-11T23:29:47.905Z,4.75
2023-03-11T23:32:15.235Z,5.63
2023-03-11T23:34:42.492Z,6.95
2023-03-11T23:37:09.665Z,6.15
2023-03-11T23:39:36.750Z,5.88
2023-03-11T23:42:14.962Z,5.80
2023-03-11T23:44:51.250Z,6.05
2023-03-11T23:47:18.442Z,7.75
2023-03-11T23:49:45.575Z,7.90
2023-03-11T23:52:12.660Z,8.10
2023-03-11T23:54:39.835Z,6.93
2023-03-11T23:57:06.919Z,7.03
2023-03-11T23:59:34.061Z,6.47
